Time;durP1;ratioP1;P1;durP2;ratioP2;P2;SDS_P1;SDS_P2;PMS_P1;PMS_P2;Temp;Humidity;BMP_temperature;BMP_pressure;BME280_temperature;BME280_humidity;BME280_pressure;Samples;Min_cycle;Max_cycle;Signal;HPM_P1;HPM_P2
2023/07/21 00:01:41;;;;;;;6.20;1.85;;;16.40;65.30;;;;;;5037004;28;20253;-83
2023/07/21 00:04:09;;;;;;;5.50;1.98;;;16.20;65.40;;;;;;5037534;28;20084;-83
2023/07/21 00:06:37;;;;;;;4.75;1.65;;;16.20;65.60;;;;;;5051839;28;20685;-83
2023/07/21 00:09:06;;;;;;;6.32;2.00;;;16.10;65.60;;;;;;5035059;28;20772;-83
2023/07/21 00:11:34;;;;;;;4.17;1.90;;;16.10;65.70;;;;;;5037162;28;20054;-82
2023/07/21 00:16:44;;;;;;;5.10;1.75;;;16.00;66.00;;;;;;5011522;28;20053;-83
2023/07/21 00:19:12;;;;;;;3.85;1.92;;;16.00;66.00;;;;;;5017948;28;20065;-83
2023/07/21 00:21:40;;;;;;;5.35;1.80;;;16.00;66.10;;;;;;5053576;28;20136;-82
2023/07/21 00:24:11;;;;;;;3.97;1.80;;;16.00;66.10;;;;;;5053612;28;20490;-82
2023/07/21 00:26:40;;;;;;;4.50;1.58;;;16.00;66.20;;;;;;5037661;28;20344;-83
2023/07/21 00:29:07;;;;;;;4.80;1.52;;;16.00;66.10;;;;;;5034448;28;20081;-82
2023/07/21 00:31:35;;;;;;;4.53;1.45;;;15.90;66.00;;;;;;5020324;28;20076;-83
2023/07/21 00:34:08;;;;;;;5.38;1.88;;;15.90;66.20;;;;;;5017453;28;20136;-82
2023/07/21 00:39:17;;;;;;;4.55;1.92;;;15.90;66.60;;;;;;5020375;28;20395;-83
2023/07/21 00:41:46;;;;;;;3.92;1.90;;;15.80;66.70;;;;;;5027383;28;20054;-82
2023/07/21 00:46:56;;;;;;;4.13;1.70;;;15.80;66.90;;;;;;5016802;28;20042;-83
2023/07/21 00:49:31;;;;;;;4.20;1.97;;;15.80;66.40;;;;;;5013817;28;20105;-83
2023/07/21 00:52:00;;;;;;;3.50;1.63;;;15.80;66.50;;;;;;5020251;28;20240;-83
2023/07/21 00:54:28;;;;;;;3.90;1.75;;;15.80;66.70;;;;;;5037034;28;20085;-83
2023/07/21 00:56:56;;;;;;;3.30;1.40;;;15.80;66.90;;;;;;5019519;28;20054;-83
2023/07/21 00:59:24;;;;;;;4.85;1.73;;;15.80;67.00;;;;;;5029220;28;20186;-83
2023/07/21 01:01:51;;;;;;;3.80;1.40;;;15.70;66.90;;;;;;5052641;28;20173;-83
2023/07/21 01:04:19;;;;;;;6.50;1.90;;;15.70;67.10;;;;;;5037070;28;20261;-83
2023/07/21 01:06:49;;;;;;;4.43;1.70;;;15.70;67.30;;;;;;5034738;28;20461;-82
2023/07/21 01:09:19;;;;;;;5.00;1.80;;;15.60;67.50;;;;;;5019120;28;20046;-82
2023/07/21 01:11:48;;;;;;;4.60;1.73;;;15.60;67.60;;;;;;5036343;28;20050;-83
2023/07/21 01:19:39;;;;;;;4.03;1.83;;;15.60;67.70;;;;;;5036271;28;20061;-83
2023/07/21 01:22:17;;;;;;;4.47;2.10;;;15.50;67.80;;;;;;5035588;28;20615;-82
2023/07/21 01:25:07;;;;;;;3.90;1.80;;;15.50;68.00;;;;;;5020243;28;20098;-83
2023/07/21 01:27:39;;;;;;;3.97;1.83;;;15.50;68.10;;;;;;5003943;28;20538;-83
2023/07/21 01:30:12;;;;;;;4.38;1.98;;;15.50;68.30;;;;;;5034096;28;21196;-83
2023/07/21 01:35:28;;;;;;;3.80;1.80;;;15.40;68.40;;;;;;5018190;28;20810;-83
2023/07/21 01:40:40;;;;;;;5.50;2.20;;;15.30;68.50;;;;;;5029490;28;20864;-83
2023/07/21 01:43:26;;;;;;;4.82;1.88;;;15.30;68.60;;;;;;5020055;28;20331;-83
2023/07/21 01:48:35;;;;;;;4.38;1.90;;;15.30;68.80;;;;;;5013435;28;20508;-82
2023/07/21 01:51:05;;;;;;;5.60;1.95;;;15.30;68.70;;;;;;5011175;28;20065;-83
2023/07/21 01:53:48;;;;;;;5.83;1.93;;;15.30;68.70;;;;;;5036503;28;20065;-83
2023/07/21 01:59:24;;;;;;;4.38;2.20;;;15.20;69.10;;;;;;5016225;28;20058;-83
2023/07/21 02:01:54;;;;;;;5.35;2.10;;;15.20;69.10;;;;;;5035861;28;20076;-83
2023/07/21 02:07:05;;;;;;;4.90;1.90;;;15.20;69.20;;;;;;5018687;28;20057;-83
2023/07/21 02:09:33;;;;;;;4.50;2.00;;;15.20;69.20;;;;;;5019297;28;20353;-83
2023/07/21 02:12:01;;;;;;;4.00;1.95;;;15.20;69.40;;;;;;5018453;28;20057;-83
2023/07/21 02:14:53;;;;;;;3.65;2.15;;;15.20;69.50;;;;;;5014206;28;20074;-82
2023/07/21 02:20:07;;;;;;;5.37;2.53;;;15.10;69.60;;;;;;5029927;28;20050;-83
2023/07/21 02:22:35;;;;;;;5.10;2.45;;;15.10;69.70;;;;;;5030797;28;21155;-82
2023/07/21 02:25:03;;;;;;;5.03;2.33;;;15.10;69.90;;;;;;5033597;28;20062;-83
2023/07/21 02:27:33;;;;;;;6.65;2.95;;;15.10;69.90;;;;;;5019808;28;20083;-83
2023/07/21 02:30:06;;;;;;;4.10;2.47;;;15.00;70.00;;;;;;5035776;28;20035;-83
2023/07/21 02:32:34;;;;;;;5.00;2.67;;;15.00;70.00;;;;;;5018614;28;20082;-83
2023/07/21 02:37:43;;;;;;;12.32;3.20;;;15.00;69.90;;;;;;5016786;28;20110;-83
2023/07/21 02:42:53;;;;;;;8.70;3.33;;;15.00;70.00;;;;;;5037523;28;20057;-83
2023/07/21 02:45:38;;;;;;;8.10;3.00;;;15.00;69.80;;;;;;5022756;28;20054;-84
2023/07/21 02:48:08;;;;;;;6.20;2.33;;;15.00;69.80;;;;;;5056051;28;20261;-83
2023/07/21 02:59:03;;;;;;;7.63;2.70;;;14.80;70.10;;;;;;5019516;28;20811;-83
2023/07/21 03:01:35;;;;;;;4.85;2.45;;;14.80;70.10;;;;;;5020589;28;20256;-83
2023/07/21 03:04:04;;;;;;;5.68;2.50;;;14.80;70.30;;;;;;5022375;28;20046;-83
2023/07/21 03:06:38;;;;;;;4.68;2.42;;;14.80;70.30;;;;;;5020290;28;20053;-82
2023/07/21 03:11:48;;;;;;;5.27;2.17;;;14.70;70.00;;;;;;5025043;28;20046;-84
2023/07/21 03:14:27;;;;;;;4.00;2.30;;;14.70;70.20;;;;;;5022313;28;20357;-83
2023/07/21 03:19:54;;;;;;;5.03;2.80;;;14.70;69.70;;;;;;5018273;28;20046;-83
2023/07/21 03:22:22;;;;;;;5.38;2.55;;;14.70;69.60;;;;;;5021327;28;20081;-83
2023/07/21 03:24:51;;;;;;;5.27;2.70;;;14.70;69.80;;;;;;5038135;28;20060;-83
2023/07/21 03:27:24;;;;;;;5.53;2.50;;;14.70;70.10;;;;;;5018293;28;20274;-83
2023/07/21 03:29:53;;;;;;;6.10;2.90;;;14.70;70.20;;;;;;5034045;28;20682;-83
2023/07/21 03:32:24;;;;;;;5.10;2.63;;;14.60;70.20;;;;;;5037713;28;20060;-83
2023/07/21 03:34:54;;;;;;;5.55;2.15;;;14.60;70.30;;;;;;5021074;28;20051;-83
2023/07/21 03:37:24;;;;;;;5.70;3.00;;;14.60;70.10;;;;;;5010286;28;20057;-83
2023/07/21 03:39:52;;;;;;;5.40;2.70;;;14.60;70.30;;;;;;5017440;28;20303;-82
2023/07/21 03:42:20;;;;;;;5.55;2.55;;;14.60;70.30;;;;;;5020082;28;20623;-83
2023/07/21 03:44:49;;;;;;;4.53;2.45;;;14.60;70.40;;;;;;5022045;28;20085;-83
2023/07/21 03:47:19;;;;;;;6.03;2.42;;;14.60;70.40;;;;;;5019195;28;20102;-84
2023/07/21 03:50:00;;;;;;;5.23;2.50;;;14.60;70.50;;;;;;5038041;28;20523;-83
2023/07/21 03:52:28;;;;;;;4.25;2.40;;;14.50;70.40;;;;;;5038428;28;20897;-83
2023/07/21 03:57:39;;;;;;;5.43;2.65;;;14.50;70.60;;;;;;5015129;28;20050;-83
2023/07/21 04:00:09;;;;;;;4.72;2.50;;;14.50;70.80;;;;;;5032046;28;20046;-83
2023/07/21 04:02:42;;;;;;;5.83;2.80;;;14.50;70.90;;;;;;5031750;28;20043;-83
2023/07/21 04:05:13;;;;;;;5.47;2.35;;;14.50;71.00;;;;;;5020623;28;20284;-83
2023/07/21 04:07:41;;;;;;;6.75;2.80;;;14.50;71.20;;;;;;5034733;28;20049;-83
2023/07/21 04:12:50;;;;;;;5.97;2.70;;;14.40;71.30;;;;;;5037743;28;20137;-83
2023/07/21 04:15:18;;;;;;;5.30;2.80;;;14.40;71.40;;;;;;5038172;28;20050;-83
2023/07/21 04:20:30;;;;;;;4.47;2.20;;;14.40;71.40;;;;;;5020885;28;20061;-83
2023/07/21 04:22:58;;;;;;;4.80;2.40;;;14.40;71.50;;;;;;5037285;28;20042;-83
2023/07/21 04:25:28;;;;;;;5.20;2.70;;;14.40;71.70;;;;;;5020296;28;20149;-83
2023/07/21 04:27:56;;;;;;;6.20;2.50;;;14.40;71.90;;;;;;5020713;28;20065;-83
2023/07/21 04:30:25;;;;;;;4.35;2.30;;;14.40;71.60;;;;;;5033820;28;20250;-83
2023/07/21 04:35:38;;;;;;;5.30;3.03;;;14.40;71.90;;;;;;5019910;28;20049;-84
2023/07/21 04:43:49;;;;;;;5.28;2.72;;;14.30;72.40;;;;;;5017773;28;20225;-84
2023/07/21 04:46:17;;;;;;;7.32;2.88;;;14.30;72.70;;;;;;5020584;28;20049;-83
2023/07/21 04:48:46;;;;;;;6.00;3.20;;;14.30;72.90;;;;;;5036879;28;20046;-83
2023/07/21 04:51:34;;;;;;;6.28;2.67;;;14.30;73.00;;;;;;5018163;28;20053;-83
2023/07/21 04:54:02;;;;;;;5.37;2.50;;;14.30;72.80;;;;;;5032875;28;20031;-83
2023/07/21 04:56:30;;;;;;;5.05;2.92;;;14.30;72.70;;;;;;5020058;28;20277;-84
2023/07/21 05:04:22;;;;;;;5.88;2.95;;;14.30;72.60;;;;;;5010564;28;20095;-84
2023/07/21 05:07:21;;;;;;;5.33;3.13;;;14.30;72.90;;;;;;5034040;28;20076;-84
2023/07/21 05:09:55;;;;;;;6.22;3.00;;;14.30;72.90;;;;;;5048633;28;20237;-83
2023/07/21 05:12:26;;;;;;;6.97;3.20;;;14.30;72.90;;;;;;5036775;28;20073;-83
2023/07/21 05:15:24;;;;;;;7.47;3.50;;;14.30;73.20;;;;;;4972762;28;20063;-84
2023/07/21 05:18:00;;;;;;;6.50;3.00;;;14.30;72.50;;;;;;5033774;28;20110;-84
2023/07/21 05:20:58;;;;;;;5.50;2.83;;;14.30;72.40;;;;;;5017312;28;20049;-84
2023/07/21 05:23:41;;;;;;;6.68;3.13;;;14.40;73.00;;;;;;5034680;28;20271;-84
2023/07/21 05:26:36;;;;;;;6.88;3.83;;;14.40;73.20;;;;;;5018049;28;20042;-84
2023/07/21 05:29:10;;;;;;;8.95;3.60;;;14.40;73.40;;;;;;5019222;28;20049;-84
2023/07/21 05:31:46;;;;;;;7.97;4.10;;;14.40;73.60;;;;;;5018177;28;20054;-84
2023/07/21 05:34:21;;;;;;;5.90;3.60;;;14.40;73.70;;;;;;5034204;28;20050;-84
2023/07/21 05:39:33;;;;;;;6.40;3.50;;;14.40;73.00;;;;;;5035327;28;20054;-83
2023/07/21 05:42:05;;;;;;;6.47;3.60;;;14.40;72.80;;;;;;5017899;28;20093;-83
2023/07/21 05:44:37;;;;;;;7.38;3.72;;;14.50;72.90;;;;;;5035301;28;20186;-84
2023/07/21 05:47:06;;;;;;;6.67;3.90;;;14.50;72.70;;;;;;5015506;28;20050;-84
2023/07/21 05:49:36;;;;;;;6.13;3.30;;;14.50;72.70;;;;;;5033958;28;20319;-83
2023/07/21 05:52:08;;;;;;;5.60;3.08;;;14.50;72.90;;;;;;5031402;28;20248;-83
2023/07/21 05:57:24;;;;;;;5.95;2.70;;;14.50;74.20;;;;;;5034693;28;20935;-84
2023/07/21 06:02:42;;;;;;;5.88;2.90;;;14.60;74.90;;;;;;5033765;28;20377;-84
2023/07/21 06:05:12;;;;;;;7.32;3.20;;;14.60;75.40;;;;;;5018389;28;20054;-84
2023/07/21 06:08:03;;;;;;;7.45;2.70;;;14.60;75.60;;;;;;5035354;28;20053;-84
2023/07/21 06:10:42;;;;;;;6.50;2.67;;;14.70;76.00;;;;;;5033275;28;20057;-83
2023/07/21 06:16:45;;;;;;;5.47;1.90;;;14.80;75.80;;;;;;5030306;28;20281;-84
2023/07/21 06:21:54;;;;;;;4.88;1.50;;;14.80;75.00;;;;;;5020873;28;20054;-84
2023/07/21 06:29:48;;;;;;;2.78;0.90;;;14.90;74.80;;;;;;5020510;28;20222;-84
2023/07/21 06:35:10;;;;;;;4.05;1.00;;;15.00;74.90;;;;;;5018399;28;20053;-82
2023/07/21 06:52:55;;;;;;;4.88;1.55;;;15.20;73.10;;;;;;5035787;28;20081;-86
2023/07/21 06:55:24;;;;;;;6.33;1.50;;;15.30;73.90;;;;;;5021078;28;20113;-86
2023/07/21 07:00:35;;;;;;;3.45;1.15;;;15.40;73.70;;;;;;5021830;28;20542;-85
2023/07/21 07:05:48;;;;;;;4.57;1.52;;;15.50;73.60;;;;;;5036630;28;20057;-84
2023/07/21 07:08:16;;;;;;;3.83;1.43;;;15.50;73.90;;;;;;5035598;28;20046;-88
2023/07/21 07:16:12;;;;;;;4.25;1.75;;;15.80;74.10;;;;;;5021619;28;20049;-86
2023/07/21 07:18:40;;;;;;;4.80;1.42;;;15.80;74.20;;;;;;5021398;28;20076;-84
2023/07/21 07:23:52;;;;;;;3.80;1.30;;;16.00;74.10;;;;;;5034817;28;20616;-83
2023/07/21 07:26:21;;;;;;;4.15;1.40;;;16.00;73.80;;;;;;5032288;28;20144;-85
2023/07/21 07:28:49;;;;;;;4.13;1.40;;;16.10;73.50;;;;;;5020210;28;20104;-87
2023/07/21 07:36:40;;;;;;;5.18;1.50;;;16.20;72.60;;;;;;5017377;28;21161;-82
2023/07/21 07:41:51;;;;;;;4.00;1.42;;;16.30;72.30;;;;;;5032989;28;20093;-85
2023/07/21 07:44:22;;;;;;;4.97;1.60;;;16.40;72.30;;;;;;5038229;28;20045;-82
2023/07/21 07:46:50;;;;;;;3.13;1.20;;;16.40;72.50;;;;;;5019432;28;20902;-83
2023/07/21 07:49:18;;;;;;;5.47;1.63;;;16.40;72.00;;;;;;5049292;28;21200;-83
2023/07/21 07:52:17;;;;;;;3.85;1.60;;;16.40;71.70;;;;;;5017594;28;20054;-89
2023/07/21 07:54:47;;;;;;;4.65;1.60;;;16.50;71.40;;;;;;5051394;28;20062;-82
2023/07/21 07:57:15;;;;;;;4.78;1.80;;;16.50;71.20;;;;;;5018983;28;20110;-83
2023/07/21 08:02:25;;;;;;;3.22;1.42;;;16.70;70.80;;;;;;5035924;28;20312;-84
2023/07/21 08:04:55;;;;;;;3.55;1.20;;;16.70;70.40;;;;;;5050354;28;20113;-85
2023/07/21 08:07:23;;;;;;;3.80;1.13;;;16.80;70.30;;;;;;5019687;28;21453;-83
2023/07/21 08:10:24;;;;;;;4.60;1.20;;;16.80;70.00;;;;;;5019047;28;20064;-86
2023/07/21 08:13:09;;;;;;;4.37;1.20;;;16.90;69.60;;;;;;5017239;28;20058;-82
2023/07/21 08:15:37;;;;;;;7.03;0.93;;;17.00;69.00;;;;;;5018959;28;20268;-83
2023/07/21 08:18:04;;;;;;;4.03;1.17;;;17.00;68.40;;;;;;5020403;28;20504;-83
2023/07/21 08:20:32;;;;;;;3.45;1.15;;;17.00;67.60;;;;;;5017988;28;20658;-84
2023/07/21 08:28:26;;;;;;;2.80;1.20;;;17.20;66.20;;;;;;5033493;28;20277;-87
2023/07/21 08:30:54;;;;;;;3.13;1.10;;;17.30;66.40;;;;;;5036648;28;20799;-84
2023/07/21 08:33:24;;;;;;;2.47;0.80;;;17.30;66.20;;;;;;5020213;28;20064;-84
2023/07/21 08:35:57;;;;;;;4.47;1.20;;;17.40;65.60;;;;;;5033263;28;20509;-84
2023/07/21 08:38:25;;;;;;;3.57;1.10;;;17.40;65.80;;;;;;5019926;28;20112;-85
2023/07/21 08:41:03;;;;;;;4.50;1.60;;;17.50;65.80;;;;;;5037232;28;20364;-84
2023/07/21 08:52:33;;;;;;;3.30;1.70;;;17.70;66.60;;;;;;5014810;28;20099;-87
2023/07/21 08:55:01;;;;;;;3.10;1.30;;;17.80;66.10;;;;;;5017614;28;20326;-87
2023/07/21 09:05:47;;;;;;;3.83;1.20;;;18.00;65.10;;;;;;5027794;28;20042;-83
2023/07/21 09:08:20;;;;;;;3.80;1.10;;;18.00;65.40;;;;;;5048687;28;20260;-87
2023/07/21 09:13:34;;;;;;;4.05;1.02;;;18.00;65.40;;;;;;5014780;28;20050;-87
2023/07/21 09:16:05;;;;;;;3.78;1.10;;;18.10;65.30;;;;;;5017922;28;20138;-87
2023/07/21 09:18:52;;;;;;;3.33;1.00;;;18.10;64.70;;;;;;5019907;28;20054;-87
2023/07/21 09:21:21;;;;;;;3.95;1.00;;;18.10;64.60;;;;;;5034831;28;20284;-87
2023/07/21 09:26:35;;;;;;;3.38;1.00;;;18.20;63.20;;;;;;5034241;28;20050;-87
2023/07/21 09:29:03;;;;;;;3.20;1.00;;;18.30;63.30;;;;;;5018800;28;20589;-87
2023/07/21 09:31:33;;;;;;;3.03;0.83;;;18.30;63.20;;;;;;5018659;28;20049;-87
2023/07/21 09:36:51;;;;;;;2.83;1.10;;;18.30;63.00;;;;;;5035604;28;20050;-87
2023/07/21 09:39:19;;;;;;;3.03;0.93;;;18.40;61.70;;;;;;5020294;28;20315;-87
2023/07/21 09:44:34;;;;;;;3.13;1.03;;;18.40;60.50;;;;;;5035557;28;20124;-87
2023/07/21 09:47:05;;;;;;;2.92;1.00;;;18.40;60.40;;;;;;5020100;28;20320;-87
2023/07/21 09:49:53;;;;;;;2.95;0.90;;;18.40;60.70;;;;;;5021432;28;20058;-87
2023/07/21 09:55:09;;;;;;;2.92;1.00;;;18.50;61.30;;;;;;5024526;28;20058;-87
2023/07/21 09:57:43;;;;;;;3.00;1.13;;;18.50;61.70;;;;;;5040915;28;20133;-87
2023/07/21 10:00:14;;;;;;;3.17;0.93;;;18.60;61.80;;;;;;5041087;28;20292;-87
2023/07/21 10:02:45;;;;;;;2.90;1.10;;;18.60;61.20;;;;;;5022250;28;20068;-88
2023/07/21 10:07:56;;;;;;;2.95;1.00;;;18.70;61.30;;;;;;5037395;28;20125;-83
2023/07/21 10:10:24;;;;;;;3.33;0.80;;;18.70;61.70;;;;;;5035736;28;20768;-81
2023/07/21 10:12:54;;;;;;;3.85;1.20;;;18.80;62.10;;;;;;5035565;28;20865;-82
2023/07/21 10:15:29;;;;;;;2.58;0.85;;;18.90;62.00;;;;;;5036446;28;20053;-86
2023/07/21 10:17:59;;;;;;;3.40;1.23;;;18.90;61.00;;;;;;5019187;28;20141;-85
2023/07/21 10:23:28;;;;;;;3.20;1.10;;;19.00;60.30;;;;;;5035275;28;20097;-87
2023/07/21 10:25:56;;;;;;;4.43;1.05;;;19.10;59.10;;;;;;5022217;28;20302;-86
2023/07/21 10:28:27;;;;;;;3.60;1.02;;;19.10;59.40;;;;;;5035301;28;20061;-83
2023/07/21 10:30:54;;;;;;;2.80;0.90;;;19.10;58.40;;;;;;5018423;28;20043;-82
2023/07/21 10:39:01;;;;;;;3.55;0.80;;;19.20;57.60;;;;;;5027376;28;20273;-82
2023/07/21 10:41:29;;;;;;;3.92;1.20;;;19.20;57.90;;;;;;5025559;28;20053;-81
2023/07/21 10:43:56;;;;;;;2.50;0.82;;;19.20;58.20;;;;;;5054675;28;20058;-82
2023/07/21 10:49:12;;;;;;;3.70;1.30;;;19.30;58.30;;;;;;5021036;28;20599;-89
2023/07/21 10:51:44;;;;;;;4.50;1.55;;;19.30;58.60;;;;;;5021790;28;20664;-88
2023/07/21 11:02:26;;;;;;;5.13;1.33;;;19.40;58.60;;;;;;5036565;28;20145;-88
2023/07/21 11:07:44;;;;;;;4.03;1.13;;;19.50;59.00;;;;;;5037086;28;20057;-88
2023/07/21 11:12:53;;;;;;;3.10;1.30;;;19.50;57.80;;;;;;5017096;28;20052;-88
2023/07/21 11:43:25;;;;;;;2.77;0.93;;;19.70;55.00;;;;;;5021203;28;20953;-89
2023/07/21 12:07:46;;;;;;;2.45;0.70;;;20.00;52.20;;;;;;5020412;28;20104;-89
2023/07/21 12:19:20;;;;;;;2.70;0.80;;;20.10;53.30;;;;;;5039042;28;20143;-89
2023/07/21 12:24:59;;;;;;;2.17;0.73;;;20.30;52.30;;;;;;5010612;28;20081;-75
2023/07/21 12:27:28;;;;;;;2.50;0.70;;;20.30;53.00;;;;;;5024825;28;20344;-76
2023/07/21 12:29:55;;;;;;;2.38;0.90;;;20.30;53.70;;;;;;5032009;28;20361;-76
2023/07/21 12:32:22;;;;;;;2.50;0.60;;;20.40;52.30;;;;;;5024126;28;20440;-71
2023/07/21 12:34:49;;;;;;;4.10;0.70;;;20.50;51.20;;;;;;5019061;28;20527;-72
2023/07/21 12:37:16;;;;;;;2.33;0.70;;;20.50;50.30;;;;;;5027248;28;20521;-72
2023/07/21 12:39:43;;;;;;;3.15;0.80;;;20.50;50.70;;;;;;5042312;28;20347;-75
2023/07/21 12:42:11;;;;;;;2.40;0.75;;;20.50;51.10;;;;;;5027447;28;20500;-74
2023/07/21 12:44:38;;;;;;;3.08;0.95;;;20.60;51.50;;;;;;5027009;28;20709;-72
2023/07/21 12:47:05;;;;;;;3.05;0.80;;;20.60;50.80;;;;;;5027423;28;20053;-72
2023/07/21 12:49:33;;;;;;;3.40;0.83;;;20.60;50.20;;;;;;5025452;28;20053;-72
2023/07/21 12:51:59;;;;;;;2.58;0.75;;;20.60;49.80;;;;;;5026744;28;20361;-72
2023/07/21 12:54:26;;;;;;;2.17;0.70;;;20.50;50.20;;;;;;5027939;28;20046;-74
2023/07/21 12:56:53;;;;;;;2.28;0.60;;;20.50;50.10;;;;;;5043957;28;20141;-73
2023/07/21 12:59:22;;;;;;;2.63;0.75;;;20.50;50.30;;;;;;5041707;28;20046;-71
2023/07/21 13:01:48;;;;;;;2.90;0.70;;;20.50;50.10;;;;;;5043175;28;20187;-74
2023/07/21 13:04:17;;;;;;;2.80;1.00;;;20.40;49.40;;;;;;5024014;28;20264;-72
2023/07/21 13:06:44;;;;;;;3.10;0.80;;;20.40;49.00;;;;;;5027420;28;20053;-74
2023/07/21 13:09:11;;;;;;;4.15;1.25;;;20.30;49.20;;;;;;5027085;28;20081;-74
2023/07/21 13:11:38;;;;;;;5.05;2.08;;;20.20;51.40;;;;;;5025965;28;20053;-72
2023/07/21 13:14:05;;;;;;;5.90;1.83;;;20.10;54.40;;;;;;5029373;28;20061;-75
2023/07/21 13:16:33;;;;;;;7.07;2.03;;;20.00;55.50;;;;;;5027786;28;20870;-75
2023/07/21 13:19:00;;;;;;;4.57;1.55;;;19.90;56.20;;;;;;5044315;28;20049;-75
2023/07/21 13:21:27;;;;;;;5.18;1.45;;;19.80;57.00;;;;;;5026255;28;20173;-81
2023/07/21 13:23:54;;;;;;;4.07;1.20;;;19.70;57.30;;;;;;5017096;28;20049;-78
2023/07/21 13:26:21;;;;;;;4.87;1.10;;;19.50;57.70;;;;;;5035820;28;20061;-80
2023/07/21 13:28:50;;;;;;;2.70;0.80;;;19.30;58.00;;;;;;5047076;28;20249;-79
2023/07/21 13:31:16;;;;;;;3.90;1.10;;;19.20;58.20;;;;;;5032442;28;20077;-79
2023/07/21 13:33:45;;;;;;;3.95;1.13;;;19.10;58.10;;;;;;5032019;28;20161;-79
2023/07/21 13:36:15;;;;;;;3.33;0.95;;;18.90;58.20;;;;;;5031325;28;20049;-79
2023/07/21 13:38:42;;;;;;;3.53;1.40;;;18.80;58.50;;;;;;5032837;28;20062;-79
2023/07/21 13:41:10;;;;;;;3.50;1.35;;;18.60;59.00;;;;;;5036148;28;20285;-79
2023/07/21 13:43:37;;;;;;;3.72;1.35;;;18.50;59.20;;;;;;5027208;28;20061;-81
2023/07/21 13:46:08;;;;;;;3.25;1.35;;;18.40;59.60;;;;;;5033262;28;20065;-83
2023/07/21 13:48:36;;;;;;;4.05;1.40;;;18.30;60.20;;;;;;5018853;28;20049;-81
2023/07/21 13:51:20;;;;;;;4.30;1.30;;;18.20;60.90;;;;;;5050750;28;20061;-81
2023/07/21 13:53:48;;;;;;;3.65;1.13;;;18.10;62.20;;;;;;5051211;28;20265;-81
2023/07/21 13:56:15;;;;;;;3.92;1.63;;;18.00;62.90;;;;;;5049119;28;20136;-81
2023/07/21 13:58:42;;;;;;;3.90;1.30;;;17.90;63.60;;;;;;5037632;28;20098;-79
2023/07/21 14:03:53;;;;;;;3.20;1.30;;;17.80;64.00;;;;;;5018964;28;20052;-82
2023/07/21 14:06:24;;;;;;;4.32;1.48;;;17.70;63.90;;;;;;5036508;28;20388;-79
2023/07/21 14:08:52;;;;;;;3.40;1.33;;;17.60;63.70;;;;;;5019396;28;20046;-83
2023/07/21 14:11:19;;;;;;;3.53;1.60;;;17.60;63.90;;;;;;5034723;28;20050;-82
2023/07/21 14:13:46;;;;;;;3.75;1.30;;;17.50;64.00;;;;;;5036729;28;20042;-81
2023/07/21 14:16:15;;;;;;;5.43;1.90;;;17.50;64.10;;;;;;5033899;28;20054;-81
2023/07/21 14:18:42;;;;;;;4.82;1.90;;;17.50;64.40;;;;;;5049924;28;20647;-82
2023/07/21 14:21:09;;;;;;;3.78;1.90;;;17.50;64.60;;;;;;5033244;28;20050;-81
2023/07/21 14:23:38;;;;;;;3.85;2.25;;;17.50;65.40;;;;;;5017025;28;20053;-82
2023/07/21 14:26:05;;;;;;;4.07;2.40;;;17.50;65.40;;;;;;5035013;28;21085;-83
2023/07/21 14:28:33;;;;;;;4.10;2.10;;;17.60;65.30;;;;;;5034896;28;20764;-82
2023/07/21 14:31:01;;;;;;;3.92;2.15;;;17.60;65.70;;;;;;5035020;28;20276;-82
2023/07/21 14:33:28;;;;;;;4.22;2.08;;;17.60;65.50;;;;;;5018232;28;20060;-79
2023/07/21 14:35:56;;;;;;;4.22;2.28;;;17.50;65.60;;;;;;5033819;28;20129;-82
2023/07/21 14:38:24;;;;;;;4.32;2.38;;;17.50;65.80;;;;;;5034304;28;20056;-84
2023/07/21 14:41:17;;;;;;;5.03;2.03;;;17.50;66.30;;;;;;5019604;28;20050;-84
2023/07/21 14:43:45;;;;;;;4.60;2.22;;;17.50;66.10;;;;;;5033889;28;20258;-84
2023/07/21 14:46:13;;;;;;;3.58;1.75;;;17.50;65.70;;;;;;5036937;28;20101;-82
2023/07/21 14:48:42;;;;;;;3.80;2.10;;;17.50;66.20;;;;;;5053639;28;20054;-83
2023/07/21 14:51:11;;;;;;;4.43;2.10;;;17.50;65.40;;;;;;5048080;28;20064;-84
2023/07/21 14:53:39;;;;;;;3.97;2.30;;;17.50;65.20;;;;;;5035436;28;20054;-83
2023/07/21 14:56:08;;;;;;;3.58;1.50;;;17.50;65.30;;;;;;5038187;28;20226;-84
2023/07/21 14:58:37;;;;;;;3.28;1.48;;;17.50;65.30;;;;;;5032343;28;20471;-84
2023/07/21 15:01:06;;;;;;;3.28;1.10;;;17.50;65.20;;;;;;5035971;28;20101;-83
2023/07/21 15:03:34;;;;;;;3.30;1.27;;;17.50;64.70;;;;;;5020063;28;20132;-82
2023/07/21 15:06:01;;;;;;;3.70;1.50;;;17.60;64.60;;;;;;5033354;28;20106;-82
2023/07/21 15:08:30;;;;;;;3.13;1.30;;;17.60;64.40;;;;;;5017325;28;21113;-82
2023/07/21 15:10:57;;;;;;;3.10;1.17;;;17.60;64.60;;;;;;5033602;28;20053;-84
2023/07/21 15:16:08;;;;;;;3.72;1.80;;;17.50;65.70;;;;;;5034828;28;20046;-84
2023/07/21 15:18:43;;;;;;;4.83;1.90;;;17.50;66.80;;;;;;5037512;28;20557;-83
2023/07/21 15:21:09;;;;;;;4.75;2.00;;;17.50;67.10;;;;;;5037098;28;20320;-82
2023/07/21 15:23:37;;;;;;;4.32;2.10;;;17.40;68.30;;;;;;5051788;28;20129;-83
2023/07/21 15:26:04;;;;;;;5.65;2.55;;;17.30;68.60;;;;;;5013647;28;20105;-81
2023/07/21 15:28:31;;;;;;;4.65;2.55;;;17.20;68.60;;;;;;5036146;28;20102;-82
2023/07/21 15:31:17;;;;;;;4.53;2.33;;;17.20;69.00;;;;;;5030330;28;20047;-82
2023/07/21 15:33:50;;;;;;;5.03;2.38;;;17.20;69.50;;;;;;5013984;28;20266;-83
2023/07/21 15:36:17;;;;;;;4.95;2.47;;;17.20;69.60;;;;;;5021117;28;20526;-82
2023/07/21 15:41:26;;;;;;;5.80;2.60;;;17.00;70.10;;;;;;5034124;28;20046;-79
2023/07/21 15:43:54;;;;;;;5.30;3.03;;;17.00;70.00;;;;;;5038502;28;20050;-83
2023/07/21 15:46:37;;;;;;;5.28;3.10;;;17.00;70.30;;;;;;5038791;28;20257;-84
2023/07/21 15:49:04;;;;;;;5.72;3.40;;;17.00;70.60;;;;;;5031215;28;20146;-82
2023/07/21 15:51:33;;;;;;;5.63;3.55;;;17.00;70.90;;;;;;5020110;28;20046;-84
2023/07/21 15:54:01;;;;;;;5.70;3.22;;;17.10;71.40;;;;;;5021497;28;20050;-83
2023/07/21 15:56:29;;;;;;;6.40;3.50;;;17.10;71.40;;;;;;5037804;28;20061;-85
2023/07/21 15:58:57;;;;;;;5.47;2.90;;;17.00;71.50;;;;;;5020369;28;20284;-83
2023/07/21 16:01:25;;;;;;;6.05;3.17;;;17.10;71.60;;;;;;5034029;28;20218;-83
2023/07/21 16:03:56;;;;;;;6.10;2.80;;;17.10;71.70;;;;;;5036727;28;20056;-83
2023/07/21 16:06:25;;;;;;;5.82;2.88;;;17.20;71.80;;;;;;5037298;28;20050;-84
2023/07/21 16:11:36;;;;;;;5.82;2.78;;;17.20;72.10;;;;;;5032473;28;20938;-83
2023/07/21 16:14:03;;;;;;;6.78;3.17;;;17.20;72.20;;;;;;5036503;28;20060;-79
2023/07/21 16:16:31;;;;;;;6.97;3.08;;;17.20;72.20;;;;;;5035674;28;20081;-80
2023/07/21 16:19:02;;;;;;;5.40;3.03;;;17.20;72.00;;;;;;5036697;28;20066;-80
2023/07/21 16:21:30;;;;;;;7.37;3.37;;;17.20;72.00;;;;;;5035035;28;20060;-82
2023/07/21 16:26:38;;;;;;;6.00;3.20;;;17.20;71.80;;;;;;5029769;28;20140;-82
2023/07/21 16:29:06;;;;;;;6.50;3.17;;;17.20;71.60;;;;;;5038889;28;20060;-87
2023/07/21 16:31:33;;;;;;;7.28;3.83;;;17.20;71.60;;;;;;5019254;28;20129;-81
2023/07/21 16:34:03;;;;;;;6.73;3.53;;;17.20;71.30;;;;;;5034336;28;20054;-82
2023/07/21 16:36:57;;;;;;;6.38;3.40;;;17.20;71.50;;;;;;5017374;28;20376;-83
2023/07/21 16:39:25;;;;;;;7.55;3.65;;;17.20;71.30;;;;;;5018574;28;20077;-82
2023/07/21 16:41:52;;;;;;;6.32;3.30;;;17.20;71.30;;;;;;5035703;28;20045;-82
2023/07/21 16:44:20;;;;;;;7.50;3.60;;;17.20;71.50;;;;;;5035912;28;20062;-80
2023/07/21 16:46:49;;;;;;;7.10;3.50;;;17.20;71.50;;;;;;5037107;28;20185;-84
2023/07/21 16:49:19;;;;;;;6.25;3.28;;;17.20;71.80;;;;;;5020880;28;20272;-83
2023/07/21 16:54:30;;;;;;;6.30;3.30;;;17.20;72.00;;;;;;5051431;28;20122;-81
2023/07/21 16:57:00;;;;;;;6.93;4.03;;;17.20;71.80;;;;;;5032096;28;20130;-79
2023/07/21 16:59:29;;;;;;;6.67;3.70;;;17.20;72.00;;;;;;5034518;28;20089;-82
2023/07/21 17:01:58;;;;;;;6.97;3.13;;;17.20;72.20;;;;;;5033887;28;20791;-81
2023/07/21 17:04:31;;;;;;;7.05;3.13;;;17.30;72.50;;;;;;5029723;28;20067;-81
2023/07/21 17:09:39;;;;;;;7.72;4.05;;;17.40;72.30;;;;;;5038391;28;20038;-83
2023/07/21 17:12:07;;;;;;;7.20;3.90;;;17.40;72.20;;;;;;5033807;28;20267;-81
2023/07/21 17:14:35;;;;;;;7.90;3.92;;;17.40;72.10;;;;;;5032991;28;20365;-81
2023/07/21 17:17:02;;;;;;;7.03;3.75;;;17.40;72.00;;;;;;5035232;28;20058;-81
2023/07/21 17:19:33;;;;;;;8.18;3.60;;;17.40;72.30;;;;;;5035887;28;20046;-81
2023/07/21 17:22:03;;;;;;;8.15;4.00;;;17.40;72.20;;;;;;5019495;28;20054;-78
2023/07/21 17:24:33;;;;;;;8.60;4.57;;;17.30;72.10;;;;;;5027206;28;20570;-81
2023/07/21 17:27:01;;;;;;;9.40;4.50;;;17.20;72.40;;;;;;5036778;28;20264;-82
2023/07/21 17:29:28;;;;;;;10.68;4.68;;;17.20;72.60;;;;;;5053507;28;20133;-81
2023/07/21 17:31:55;;;;;;;9.25;4.80;;;17.20;72.90;;;;;;5026683;28;20058;-80
2023/07/21 17:34:23;;;;;;;10.57;5.55;;;17.20;73.00;;;;;;5016537;28;20054;-80
2023/07/21 17:36:51;;;;;;;8.73;5.30;;;17.20;73.10;;;;;;5036774;28;20545;-81
2023/07/21 17:39:18;;;;;;;9.35;4.53;;;17.20;72.80;;;;;;5034496;28;20883;-81
2023/07/21 17:41:48;;;;;;;9.77;5.63;;;17.20;72.40;;;;;;5034269;28;20046;-81